sensor_id;sensor_type;location;lat;lon;timestamp;temperature;humidity
18794;DHT22;29610;49.022;12.114;2023-05-29T00:02:48;11.20;83.60
18794;DHT22;29610;49.022;12.114;2023-05-29T00:05:38;11.10;85.20
18794;DHT22;29610;49.022;12.114;2023-05-29T00:08:28;11.30;85.80
18794;DHT22;29610;49.022;12.114;2023-05-29T00:11:17;11.30;85.30
18794;DHT22;29610;49.022;12.114;2023-05-29T00:14:05;11.10;85.20
18794;DHT22;29610;49.022;12.114;2023-05-29T00:16:53;10.90;85.20
18794;DHT22;29610;49.022;12.114;2023-05-29T00:19:43;10.80;85.00
18794;DHT22;29610;49.022;12.114;2023-05-29T00:22:32;10.70;85.50
18794;DHT22;29610;49.022;12.114;2023-05-29T00:25:22;10.70;86.10
18794;DHT22;29610;49.022;12.114;2023-05-29T00:28:10;10.70;86.80
18794;DHT22;29610;49.022;12.114;2023-05-29T00:30:59;10.90;87.20
18794;DHT22;29610;49.022;12.114;2023-05-29T00:33:48;10.90;87.20
18794;DHT22;29610;49.022;12.114;2023-05-29T00:36:36;10.70;87.20
18794;DHT22;29610;49.022;12.114;2023-05-29T00:39:25;10.90;88.40
18794;DHT22;29610;49.022;12.114;2023-05-29T00:42:15;11.00;89.30
18794;DHT22;29610;49.022;12.114;2023-05-29T00:45:04;11.00;88.60
18794;DHT22;29610;49.022;12.114;2023-05-29T00:47:54;10.90;88.60
18794;DHT22;29610;49.022;12.114;2023-05-29T00:50:44;10.80;88.80
18794;DHT22;29610;49.022;12.114;2023-05-29T00:53:33;10.80;89.10
18794;DHT22;29610;49.022;12.114;2023-05-29T00:56:23;10.80;88.60
18794;DHT22;29610;49.022;12.114;2023-05-29T00:59:13;10.60;88.90
18794;DHT22;29610;49.022;12.114;2023-05-29T01:02:03;10.60;90.10
18794;DHT22;29610;49.022;12.114;2023-05-29T01:04:53;10.50;90.00
18794;DHT22;29610;49.022;12.114;2023-05-29T01:07:42;10.50;89.90
18794;DHT22;29610;49.022;12.114;2023-05-29T01:10:31;10.40;89.70
18794;DHT22;29610;49.022;12.114;2023-05-29T01:13:23;10.30;90.00
18794;DHT22;29610;49.022;12.114;2023-05-29T01:16:24;10.30;90.70
18794;DHT22;29610;49.022;12.114;2023-05-29T01:19:30;10.40;90.60
18794;DHT22;29610;49.022;12.114;2023-05-29T01:26:43;10.10;90.50
18794;DHT22;29610;49.022;12.114;2023-05-29T01:29:35;10.00;90.80
18794;DHT22;29610;49.022;12.114;2023-05-29T01:32:27;10.00;91.20
18794;DHT22;29610;49.022;12.114;2023-05-29T01:35:17;9.90;91.90
18794;DHT22;29610;49.022;12.114;2023-05-29T01:38:06;10.10;91.50
18794;DHT22;29610;49.022;12.114;2023-05-29T01:40:55;10.10;91.60
18794;DHT22;29610;49.022;12.114;2023-05-29T01:43:45;10.10;91.80
18794;DHT22;29610;49.022;12.114;2023-05-29T01:46:37;10.00;91.80
18794;DHT22;29610;49.022;12.114;2023-05-29T01:49:27;10.10;91.90
18794;DHT22;29610;49.022;12.114;2023-05-29T01:52:17;10.10;91.90
18794;DHT22;29610;49.022;12.114;2023-05-29T01:55:06;10.00;92.10
18794;DHT22;29610;49.022;12.114;2023-05-29T01:57:56;10.00;92.30
18794;DHT22;29610;49.022;12.114;2023-05-29T02:00:47;10.00;92.30
18794;DHT22;29610;49.022;12.114;2023-05-29T02:03:36;10.00;92.40
18794;DHT22;29610;49.022;12.114;2023-05-29T02:06:25;10.00;92.20
18794;DHT22;29610;49.022;12.114;2023-05-29T02:09:13;9.90;92.70
18794;DHT22;29610;49.022;12.114;2023-05-29T02:12:06;9.70;92.70
18794;DHT22;29610;49.022;12.114;2023-05-29T02:14:55;9.50;92.80
18794;DHT22;29610;49.022;12.114;2023-05-29T02:17:45;9.30;93.20
18794;DHT22;29610;49.022;12.114;2023-05-29T02:20:33;9.10;93.60
18794;DHT22;29610;49.022;12.114;2023-05-29T02:23:22;9.00;94.40
18794;DHT22;29610;49.022;12.114;2023-05-29T02:26:12;9.00;94.90
18794;DHT22;29610;49.022;12.114;2023-05-29T02:29:03;9.00;95.20
18794;DHT22;29610;49.022;12.114;2023-05-29T02:31:53;8.90;95.20
18794;DHT22;29610;49.022;12.114;2023-05-29T02:34:43;8.90;95.70
18794;DHT22;29610;49.022;12.114;2023-05-29T02:37:32;8.90;95.60
18794;DHT22;29610;49.022;12.114;2023-05-29T02:40:21;8.70;95.60
18794;DHT22;29610;49.022;12.114;2023-05-29T02:43:13;8.70;96.30
18794;DHT22;29610;49.022;12.114;2023-05-29T02:46:02;8.80;96.50
18794;DHT22;29610;49.022;12.114;2023-05-29T02:48:50;8.80;96.40
18794;DHT22;29610;49.022;12.114;2023-05-29T02:51:40;8.80;96.60
18794;DHT22;29610;49.022;12.114;2023-05-29T02:54:28;9.00;96.50
18794;DHT22;29610;49.022;12.114;2023-05-29T02:57:17;9.20;96.30
18794;DHT22;29610;49.022;12.114;2023-05-29T03:00:07;9.20;96.00
18794;DHT22;29610;49.022;12.114;2023-05-29T03:02:57;9.20;96.00
18794;DHT22;29610;49.022;12.114;2023-05-29T03:05:48;9.10;96.20
18794;DHT22;29610;49.022;12.114;2023-05-29T03:08:38;9.00;96.20
18794;DHT22;29610;49.022;12.114;2023-05-29T03:11:27;8.80;96.10
18794;DHT22;29610;49.022;12.114;2023-05-29T03:14:15;8.60;96.30
18794;DHT22;29610;49.022;12.114;2023-05-29T03:17:06;8.60;97.10
18794;DHT22;29610;49.022;12.114;2023-05-29T03:19:55;8.60;97.40
18794;DHT22;29610;49.022;12.114;2023-05-29T03:22:44;8.60;97.60
18794;DHT22;29610;49.022;12.114;2023-05-29T03:25:34;8.50;97.70
18794;DHT22;29610;49.022;12.114;2023-05-29T03:28:23;8.40;97.90
18794;DHT22;29610;49.022;12.114;2023-05-29T03:31:13;8.40;98.60
18794;DHT22;29610;49.022;12.114;2023-05-29T03:34:02;8.50;99.10
18794;DHT22;29610;49.022;12.114;2023-05-29T03:37:10;8.70;99.10
18794;DHT22;29610;49.022;12.114;2023-05-29T03:39:59;8.70;99.20
18794;DHT22;29610;49.022;12.114;2023-05-29T03:42:49;8.80;99.10
18794;DHT22;29610;49.022;12.114;2023-05-29T03:45:38;8.80;98.90
18794;DHT22;29610;49.022;12.114;2023-05-29T03:48:27;8.90;98.80
18794;DHT22;29610;49.022;12.114;2023-05-29T03:51:16;8.90;98.80
18794;DHT22;29610;49.022;12.114;2023-05-29T03:54:04;9.00;98.70
18794;DHT22;29610;49.022;12.114;2023-05-29T03:56:53;9.10;98.30
18794;DHT22;29610;49.022;12.114;2023-05-29T03:59:46;9.20;98.00
18794;DHT22;29610;49.022;12.114;2023-05-29T04:02:36;9.20;97.90
18794;DHT22;29610;49.022;12.114;2023-05-29T04:05:24;9.30;97.80
18794;DHT22;29610;49.022;12.114;2023-05-29T04:08:13;9.30;97.70
18794;DHT22;29610;49.022;12.114;2023-05-29T04:11:03;9.40;97.40
18794;DHT22;29610;49.022;12.114;2023-05-29T04:13:51;9.50;97.20
18794;DHT22;29610;49.022;12.114;2023-05-29T04:16:41;9.50;97.10
18794;DHT22;29610;49.022;12.114;2023-05-29T04:19:30;9.60;97.10
18794;DHT22;29610;49.022;12.114;2023-05-29T04:22:20;9.70;96.80
18794;DHT22;29610;49.022;12.114;2023-05-29T04:25:09;9.80;96.60
18794;DHT22;29610;49.022;12.114;2023-05-29T04:28:00;9.90;96.30
18794;DHT22;29610;49.022;12.114;2023-05-29T04:30:49;10.00;95.50
18794;DHT22;29610;49.022;12.114;2023-05-29T04:33:40;10.10;95.60
18794;DHT22;29610;49.022;12.114;2023-05-29T04:36:32;10.20;95.10
18794;DHT22;29610;49.022;12.114;2023-05-29T04:39:29;10.30;94.80
18794;DHT22;29610;49.022;12.114;2023-05-29T04:42:18;10.50;94.80
18794;DHT22;29610;49.022;12.114;2023-05-29T04:45:07;10.60;94.10
18794;DHT22;29610;49.022;12.114;2023-05-29T04:47:58;10.80;94.00
18794;DHT22;29610;49.022;12.114;2023-05-29T04:50:49;10.90;93.50
18794;DHT22;29610;49.022;12.114;2023-05-29T04:53:38;11.00;93.10
18794;DHT22;29610;49.022;12.114;2023-05-29T04:56:28;11.20;92.80
18794;DHT22;29610;49.022;12.114;2023-05-29T04:59:17;11.30;92.40
18794;DHT22;29610;49.022;12.114;2023-05-29T05:02:05;11.40;92.20
18794;DHT22;29610;49.022;12.114;2023-05-29T05:04:54;11.40;92.20
18794;DHT22;29610;49.022;12.114;2023-05-29T05:07:44;11.60;92.50
18794;DHT22;29610;49.022;12.114;2023-05-29T05:10:33;11.70;91.90
18794;DHT22;29610;49.022;12.114;2023-05-29T05:13:22;11.90;91.70
18794;DHT22;29610;49.022;12.114;2023-05-29T05:16:11;12.10;91.30
18794;DHT22;29610;49.022;12.114;2023-05-29T05:19:00;12.30;91.00
18794;DHT22;29610;49.022;12.114;2023-05-29T05:21:52;12.40;90.10
18794;DHT22;29610;49.022;12.114;2023-05-29T05:24:43;12.40;89.80
18794;DHT22;29610;49.022;12.114;2023-05-29T05:27:33;12.40;90.10
18794;DHT22;29610;49.022;12.114;2023-05-29T05:30:22;12.40;90.00
18794;DHT22;29610;49.022;12.114;2023-05-29T05:33:11;12.60;90.20
18794;DHT22;29610;49.022;12.114;2023-05-29T05:35:59;12.70;89.50
18794;DHT22;29610;49.022;12.114;2023-05-29T05:38:48;12.80;89.40
18794;DHT22;29610;49.022;12.114;2023-05-29T05:41:38;13.00;89.40
18794;DHT22;29610;49.022;12.114;2023-05-29T05:44:27;13.10;88.70
18794;DHT22;29610;49.022;12.114;2023-05-29T05:47:22;13.30;88.20
18794;DHT22;29610;49.022;12.114;2023-05-29T05:50:11;13.50;87.30
18794;DHT22;29610;49.022;12.114;2023-05-29T05:52:59;13.70;87.00
18794;DHT22;29610;49.022;12.114;2023-05-29T05:55:48;13.90;87.20
18794;DHT22;29610;49.022;12.114;2023-05-29T05:58:38;14.00;86.30
18794;DHT22;29610;49.022;12.114;2023-05-29T06:01:29;14.20;86.20
18794;DHT22;29610;49.022;12.114;2023-05-29T06:04:18;14.40;85.50
18794;DHT22;29610;49.022;12.114;2023-05-29T06:07:07;14.50;86.20
18794;DHT22;29610;49.022;12.114;2023-05-29T06:09:56;14.70;84.40
18794;DHT22;29610;49.022;12.114;2023-05-29T06:12:45;14.90;84.40
18794;DHT22;29610;49.022;12.114;2023-05-29T06:15:42;15.00;83.50
18794;DHT22;29610;49.022;12.114;2023-05-29T06:18:31;15.10;82.80
18794;DHT22;29610;49.022;12.114;2023-05-29T06:21:20;15.30;82.30
18794;DHT22;29610;49.022;12.114;2023-05-29T06:24:14;15.40;82.00
18794;DHT22;29610;49.022;12.114;2023-05-29T06:27:02;15.50;81.70
18794;DHT22;29610;49.022;12.114;2023-05-29T06:29:52;15.60;80.80
18794;DHT22;29610;49.022;12.114;2023-05-29T06:32:42;15.50;80.40
18794;DHT22;29610;49.022;12.114;2023-05-29T06:35:30;15.70;81.60
18794;DHT22;29610;49.022;12.114;2023-05-29T06:38:19;15.80;80.80
18794;DHT22;29610;49.022;12.114;2023-05-29T06:41:10;16.00;80.90
18794;DHT22;29610;49.022;12.114;2023-05-29T06:43:59;16.10;79.80
18794;DHT22;29610;49.022;12.114;2023-05-29T06:46:48;16.40;79.80
18794;DHT22;29610;49.022;12.114;2023-05-29T06:49:38;16.50;78.90
18794;DHT22;29610;49.022;12.114;2023-05-29T06:52:27;16.70;77.50
18794;DHT22;29610;49.022;12.114;2023-05-29T06:55:45;16.70;78.70
18794;DHT22;29610;49.022;12.114;2023-05-29T06:58:34;17.10;78.90
18794;DHT22;29610;49.022;12.114;2023-05-29T07:01:23;17.20;77.00
18794;DHT22;29610;49.022;12.114;2023-05-29T07:04:39;17.40;75.70
18794;DHT22;29610;49.022;12.114;2023-05-29T07:07:28;17.70;75.10
18794;DHT22;29610;49.022;12.114;2023-05-29T07:10:16;17.80;74.70
18794;DHT22;29610;49.022;12.114;2023-05-29T07:13:05;18.00;74.60
18794;DHT22;29610;49.022;12.114;2023-05-29T07:15:54;18.10;74.20
18794;DHT22;29610;49.022;12.114;2023-05-29T07:18:51;18.40;71.10
18794;DHT22;29610;49.022;12.114;2023-05-29T07:21:41;18.60;70.60
18794;DHT22;29610;49.022;12.114;2023-05-29T07:24:30;18.60;69.70
18794;DHT22;29610;49.022;12.114;2023-05-29T07:27:23;18.80;70.00
18794;DHT22;29610;49.022;12.114;2023-05-29T07:30:12;19.00;68.30
18794;DHT22;29610;49.022;12.114;2023-05-29T07:33:03;19.10;67.40
18794;DHT22;29610;49.022;12.114;2023-05-29T07:35:52;19.10;67.90
18794;DHT22;29610;49.022;12.114;2023-05-29T07:38:42;18.90;66.60
18794;DHT22;29610;49.022;12.114;2023-05-29T07:41:32;19.30;67.20
18794;DHT22;29610;49.022;12.114;2023-05-29T07:44:22;19.40;66.20
18794;DHT22;29610;49.022;12.114;2023-05-29T07:47:11;19.60;66.00
18794;DHT22;29610;49.022;12.114;2023-05-29T07:50:04;19.60;63.60
18794;DHT22;29610;49.022;12.114;2023-05-29T07:52:54;19.50;63.90
18794;DHT22;29610;49.022;12.114;2023-05-29T07:55:44;19.70;63.10
18794;DHT22;29610;49.022;12.114;2023-05-29T07:58:33;19.80;63.00
18794;DHT22;29610;49.022;12.114;2023-05-29T08:01:23;19.60;61.70
18794;DHT22;29610;49.022;12.114;2023-05-29T08:04:13;19.90;65.60
18794;DHT22;29610;49.022;12.114;2023-05-29T08:07:02;20.30;63.40
18794;DHT22;29610;49.022;12.114;2023-05-29T08:09:51;20.60;61.60
18794;DHT22;29610;49.022;12.114;2023-05-29T08:12:41;20.70;63.60
18794;DHT22;29610;49.022;12.114;2023-05-29T08:15:30;21.00;63.30
18794;DHT22;29610;49.022;12.114;2023-05-29T08:18:18;21.00;60.30
18794;DHT22;29610;49.022;12.114;2023-05-29T08:21:07;21.00;59.80
18794;DHT22;29610;49.022;12.114;2023-05-29T08:23:56;21.30;59.90
18794;DHT22;29610;49.022;12.114;2023-05-29T08:26:44;21.30;61.10
18794;DHT22;29610;49.022;12.114;2023-05-29T08:29:34;21.60;60.10
18794;DHT22;29610;49.022;12.114;2023-05-29T08:32:24;21.60;59.60
18794;DHT22;29610;49.022;12.114;2023-05-29T08:35:12;21.50;58.60
18794;DHT22;29610;49.022;12.114;2023-05-29T08:38:01;21.60;60.50
18794;DHT22;29610;49.022;12.114;2023-05-29T08:40:50;21.90;59.30
18794;DHT22;29610;49.022;12.114;2023-05-29T08:43:41;22.00;59.60
18794;DHT22;29610;49.022;12.114;2023-05-29T08:46:32;21.70;58.90
18794;DHT22;29610;49.022;12.114;2023-05-29T08:49:22;21.60;59.40
18794;DHT22;29610;49.022;12.114;2023-05-29T08:52:15;21.30;59.30
18794;DHT22;29610;49.022;12.114;2023-05-29T08:55:05;21.40;58.50
18794;DHT22;29610;49.022;12.114;2023-05-29T08:57:55;21.70;57.50
18794;DHT22;29610;49.022;12.114;2023-05-29T09:00:46;22.10;57.80
18794;DHT22;29610;49.022;12.114;2023-05-29T09:03:37;22.00;59.40
18794;DHT22;29610;49.022;12.114;2023-05-29T09:06:26;22.20;57.80
18794;DHT22;29610;49.022;12.114;2023-05-29T09:09:15;22.20;56.50
18794;DHT22;29610;49.022;12.114;2023-05-29T09:12:04;22.10;56.70
18794;DHT22;29610;49.022;12.114;2023-05-29T09:14:54;22.10;55.40
18794;DHT22;29610;49.022;12.114;2023-05-29T09:17:43;22.70;56.20
18794;DHT22;29610;49.022;12.114;2023-05-29T09:20:34;22.80;55.10
18794;DHT22;29610;49.022;12.114;2023-05-29T09:23:23;22.70;53.90
18794;DHT22;29610;49.022;12.114;2023-05-29T09:26:14;22.40;55.10
18794;DHT22;29610;49.022;12.114;2023-05-29T09:29:03;22.80;55.20
18794;DHT22;29610;49.022;12.114;2023-05-29T09:31:53;23.00;55.10
18794;DHT22;29610;49.022;12.114;2023-05-29T09:34:42;23.10;54.10
18794;DHT22;29610;49.022;12.114;2023-05-29T09:37:32;23.60;52.90
18794;DHT22;29610;49.022;12.114;2023-05-29T09:40:22;23.40;52.10
18794;DHT22;29610;49.022;12.114;2023-05-29T09:43:12;23.40;50.10
18794;DHT22;29610;49.022;12.114;2023-05-29T09:46:06;23.00;50.20
18794;DHT22;29610;49.022;12.114;2023-05-29T09:49:01;22.90;52.00
18794;DHT22;29610;49.022;12.114;2023-05-29T09:51:53;23.10;52.20
18794;DHT22;29610;49.022;12.114;2023-05-29T09:54:44;23.50;51.40
18794;DHT22;29610;49.022;12.114;2023-05-29T09:57:33;23.90;49.50
18794;DHT22;29610;49.022;12.114;2023-05-29T10:00:22;23.60;49.90
18794;DHT22;29610;49.022;12.114;2023-05-29T10:03:12;23.30;50.10
18794;DHT22;29610;49.022;12.114;2023-05-29T10:06:01;23.20;44.60
18794;DHT22;29610;49.022;12.114;2023-05-29T10:08:55;23.90;49.30
18794;DHT22;29610;49.022;12.114;2023-05-29T10:11:50;24.00;49.50
18794;DHT22;29610;49.022;12.114;2023-05-29T10:14:45;24.20;49.20
18794;DHT22;29610;49.022;12.114;2023-05-29T10:17:38;25.00;48.90
18794;DHT22;29610;49.022;12.114;2023-05-29T10:20:32;24.30;47.70
18794;DHT22;29610;49.022;12.114;2023-05-29T10:23:26;24.40;48.20
18794;DHT22;29610;49.022;12.114;2023-05-29T10:26:20;23.80;49.70
18794;DHT22;29610;49.022;12.114;2023-05-29T10:29:16;24.10;51.90
18794;DHT22;29610;49.022;12.114;2023-05-29T10:32:19;24.70;48.30
18794;DHT22;29610;49.022;12.114;2023-05-29T10:35:16;25.20;46.60
18794;DHT22;29610;49.022;12.114;2023-05-29T10:38:12;25.30;44.90
18794;DHT22;29610;49.022;12.114;2023-05-29T10:41:28;24.90;46.70
18794;DHT22;29610;49.022;12.114;2023-05-29T10:44:41;25.40;51.30
18794;DHT22;29610;49.022;12.114;2023-05-29T10:47:29;26.00;45.40
18794;DHT22;29610;49.022;12.114;2023-05-29T10:50:35;25.70;47.10
18794;DHT22;29610;49.022;12.114;2023-05-29T10:53:26;25.10;47.70
18794;DHT22;29610;49.022;12.114;2023-05-29T10:56:22;25.40;52.50
18794;DHT22;29610;49.022;12.114;2023-05-29T10:59:13;26.40;50.20
18794;DHT22;29610;49.022;12.114;2023-05-29T11:02:04;26.30;45.90
18794;DHT22;29610;49.022;12.114;2023-05-29T11:05:19;26.40;45.50
18794;DHT22;29610;49.022;12.114;2023-05-29T11:08:12;26.20;51.70
18794;DHT22;29610;49.022;12.114;2023-05-29T11:11:02;27.10;47.10
18794;DHT22;29610;49.022;12.114;2023-05-29T11:13:53;27.60;45.20
18794;DHT22;29610;49.022;12.114;2023-05-29T11:16:43;26.40;44.60
18794;DHT22;29610;49.022;12.114;2023-05-29T11:19:33;25.30;44.20
18794;DHT22;29610;49.022;12.114;2023-05-29T11:22:29;25.80;49.40
18794;DHT22;29610;49.022;12.114;2023-05-29T11:25:22;26.40;49.30
18794;DHT22;29610;49.022;12.114;2023-05-29T11:28:11;27.40;46.40
18794;DHT22;29610;49.022;12.114;2023-05-29T11:31:00;27.40;47.50
18794;DHT22;29610;49.022;12.114;2023-05-29T11:33:58;26.50;48.10
18794;DHT22;29610;49.022;12.114;2023-05-29T11:36:52;27.30;45.30
18794;DHT22;29610;49.022;12.114;2023-05-29T11:39:41;27.00;45.30
18794;DHT22;29610;49.022;12.114;2023-05-29T11:42:30;26.90;44.40
18794;DHT22;29610;49.022;12.114;2023-05-29T11:45:20;26.90;48.10
18794;DHT22;29610;49.022;12.114;2023-05-29T11:48:10;26.20;44.80
18794;DHT22;29610;49.022;12.114;2023-05-29T11:51:03;25.70;46.40
18794;DHT22;29610;49.022;12.114;2023-05-29T11:53:55;25.20;46.40
18794;DHT22;29610;49.022;12.114;2023-05-29T11:56:47;25.00;46.40
18794;DHT22;29610;49.022;12.114;2023-05-29T11:59:40;25.50;45.90
18794;DHT22;29610;49.022;12.114;2023-05-29T12:02:30;25.80;46.30
18794;DHT22;29610;49.022;12.114;2023-05-29T12:05:20;26.00;49.20
18794;DHT22;29610;49.022;12.114;2023-05-29T12:08:09;25.80;45.90
18794;DHT22;29610;49.022;12.114;2023-05-29T12:10:59;25.80;44.50
18794;DHT22;29610;49.022;12.114;2023-05-29T12:13:56;26.20;47.80
18794;DHT22;29610;49.022;12.114;2023-05-29T12:16:46;26.10;43.60
18794;DHT22;29610;49.022;12.114;2023-05-29T12:19:35;26.20;49.70
18794;DHT22;29610;49.022;12.114;2023-05-29T12:22:32;26.40;44.00
18794;DHT22;29610;49.022;12.114;2023-05-29T12:25:23;26.70;47.30
18794;DHT22;29610;49.022;12.114;2023-05-29T12:28:16;26.80;44.90
18794;DHT22;29610;49.022;12.114;2023-05-29T12:31:07;26.50;44.10
18794;DHT22;29610;49.022;12.114;2023-05-29T12:34:00;26.20;44.40
18794;DHT22;29610;49.022;12.114;2023-05-29T12:36:49;26.00;45.20
18794;DHT22;29610;49.022;12.114;2023-05-29T12:39:37;25.70;45.00
18794;DHT22;29610;49.022;12.114;2023-05-29T12:42:26;26.00;43.00
18794;DHT22;29610;49.022;12.114;2023-05-29T12:45:17;26.10;45.30
18794;DHT22;29610;49.022;12.114;2023-05-29T12:48:07;26.70;48.20
18794;DHT22;29610;49.022;12.114;2023-05-29T12:50:57;27.40;44.10
18794;DHT22;29610;49.022;12.114;2023-05-29T12:53:45;26.70;42.20
18794;DHT22;29610;49.022;12.114;2023-05-29T12:56:34;26.40;44.30
18794;DHT22;29610;49.022;12.114;2023-05-29T12:59:22;26.90;47.20
18794;DHT22;29610;49.022;12.114;2023-05-29T13:02:12;27.70;44.80
18794;DHT22;29610;49.022;12.114;2023-05-29T13:05:02;27.50;42.70
18794;DHT22;29610;49.022;12.114;2023-05-29T13:07:51;27.70;44.80
18794;DHT22;29610;49.022;12.114;2023-05-29T13:10:39;27.90;43.00
18794;DHT22;29610;49.022;12.114;2023-05-29T13:13:28;27.90;41.00
18794;DHT22;29610;49.022;12.114;2023-05-29T13:16:16;27.80;43.90
18794;DHT22;29610;49.022;12.114;2023-05-29T13:19:11;28.00;42.00
18794;DHT22;29610;49.022;12.114;2023-05-29T13:21:59;27.90;42.00
18794;DHT22;29610;49.022;12.114;2023-05-29T13:24:48;27.30;40.20
18794;DHT22;29610;49.022;12.114;2023-05-29T13:27:37;26.70;42.60
18794;DHT22;29610;49.022;12.114;2023-05-29T13:30:27;26.50;41.90
18794;DHT22;29610;49.022;12.114;2023-05-29T13:33:16;26.50;42.30
18794;DHT22;29610;49.022;12.114;2023-05-29T13:36:06;26.40;42.20
18794;DHT22;29610;49.022;12.114;2023-05-29T13:38:55;26.40;42.50
18794;DHT22;29610;49.022;12.114;2023-05-29T13:41:43;26.30;43.70
18794;DHT22;29610;49.022;12.114;2023-05-29T13:44:32;26.00;42.30
18794;DHT22;29610;49.022;12.114;2023-05-29T13:47:20;26.30;44.60
18794;DHT22;29610;49.022;12.114;2023-05-29T13:50:09;27.10;44.50
18794;DHT22;29610;49.022;12.114;2023-05-29T13:53:00;28.10;42.40
18794;DHT22;29610;49.022;12.114;2023-05-29T13:55:48;28.50;42.70
18794;DHT22;29610;49.022;12.114;2023-05-29T13:58:37;28.90;41.80
18794;DHT22;29610;49.022;12.114;2023-05-29T14:01:25;28.70;41.60
18794;DHT22;29610;49.022;12.114;2023-05-29T14:04:14;28.00;40.20
18794;DHT22;29610;49.022;12.114;2023-05-29T14:07:02;27.30;40.60
18794;DHT22;29610;49.022;12.114;2023-05-29T14:09:52;26.80;41.30
18794;DHT22;29610;49.022;12.114;2023-05-29T14:12:41;26.70;41.70
18794;DHT22;29610;49.022;12.114;2023-05-29T14:15:29;26.00;41.50
18794;DHT22;29610;49.022;12.114;2023-05-29T14:18:18;25.30;41.90
18794;DHT22;29610;49.022;12.114;2023-05-29T14:21:07;25.30;42.70
18794;DHT22;29610;49.022;12.114;2023-05-29T14:23:55;25.20;42.30
18794;DHT22;29610;49.022;12.114;2023-05-29T14:26:45;25.10;39.10
18794;DHT22;29610;49.022;12.114;2023-05-29T14:29:34;25.10;40.80
18794;DHT22;29610;49.022;12.114;2023-05-29T14:32:22;25.40;41.80
18794;DHT22;29610;49.022;12.114;2023-05-29T14:35:11;25.20;41.30
18794;DHT22;29610;49.022;12.114;2023-05-29T14:38:00;25.30;38.60
18794;DHT22;29610;49.022;12.114;2023-05-29T14:40:48;24.90;39.10
18794;DHT22;29610;49.022;12.114;2023-05-29T14:43:55;25.00;43.80
18794;DHT22;29610;49.022;12.114;2023-05-29T14:46:45;25.50;44.40
18794;DHT22;29610;49.022;12.114;2023-05-29T14:49:33;25.80;42.30
18794;DHT22;29610;49.022;12.114;2023-05-29T14:52:22;25.80;41.30
18794;DHT22;29610;49.022;12.114;2023-05-29T14:55:10;25.70;42.60
18794;DHT22;29610;49.022;12.114;2023-05-29T14:57:59;25.40;42.00
18794;DHT22;29610;49.022;12.114;2023-05-29T15:00:49;25.40;41.80
18794;DHT22;29610;49.022;12.114;2023-05-29T15:03:37;25.60;39.70
18794;DHT22;29610;49.022;12.114;2023-05-29T15:06:26;25.60;39.80
18794;DHT22;29610;49.022;12.114;2023-05-29T15:09:16;25.60;41.40
18794;DHT22;29610;49.022;12.114;2023-05-29T15:12:05;25.30;40.70
18794;DHT22;29610;49.022;12.114;2023-05-29T15:14:54;25.50;42.50
18794;DHT22;29610;49.022;12.114;2023-05-29T15:17:44;25.30;41.20
18794;DHT22;29610;49.022;12.114;2023-05-29T15:20:37;25.30;40.90
18794;DHT22;29610;49.022;12.114;2023-05-29T15:23:26;25.30;42.20
18794;DHT22;29610;49.022;12.114;2023-05-29T15:26:15;25.50;43.50
18794;DHT22;29610;49.022;12.114;2023-05-29T15:29:05;25.60;41.30
18794;DHT22;29610;49.022;12.114;2023-05-29T15:31:54;25.40;42.80
18794;DHT22;29610;49.022;12.114;2023-05-29T15:34:43;25.40;41.50
18794;DHT22;29610;49.022;12.114;2023-05-29T15:37:32;25.30;40.90
18794;DHT22;29610;49.022;12.114;2023-05-29T15:40:21;25.40;40.60
18794;DHT22;29610;49.022;12.114;2023-05-29T15:43:09;25.50;40.60
18794;DHT22;29610;49.022;12.114;2023-05-29T15:45:59;25.30;40.10
18794;DHT22;29610;49.022;12.114;2023-05-29T15:48:48;25.30;43.20
18794;DHT22;29610;49.022;12.114;2023-05-29T15:51:40;25.50;38.30
18794;DHT22;29610;49.022;12.114;2023-05-29T15:54:29;25.60;40.50
18794;DHT22;29610;49.022;12.114;2023-05-29T15:57:18;25.70;38.60
18794;DHT22;29610;49.022;12.114;2023-05-29T16:00:08;25.80;40.10
18794;DHT22;29610;49.022;12.114;2023-05-29T16:02:58;26.10;40.40
18794;DHT22;29610;49.022;12.114;2023-05-29T16:05:48;26.10;39.10
18794;DHT22;29610;49.022;12.114;2023-05-29T16:08:38;26.00;37.90
18794;DHT22;29610;49.022;12.114;2023-05-29T16:11:27;26.10;38.50
18794;DHT22;29610;49.022;12.114;2023-05-29T16:14:16;26.10;38.10
18794;DHT22;29610;49.022;12.114;2023-05-29T16:17:05;26.40;38.20
18794;DHT22;29610;49.022;12.114;2023-05-29T16:19:55;26.40;37.20
18794;DHT22;29610;49.022;12.114;2023-05-29T16:22:43;26.10;38.90
18794;DHT22;29610;49.022;12.114;2023-05-29T16:25:33;25.80;38.70
18794;DHT22;29610;49.022;12.114;2023-05-29T16:28:22;25.50;40.60
18794;DHT22;29610;49.022;12.114;2023-05-29T16:31:10;25.40;40.20
18794;DHT22;29610;49.022;12.114;2023-05-29T16:33:59;25.10;41.10
18794;DHT22;29610;49.022;12.114;2023-05-29T16:36:48;24.60;40.00
18794;DHT22;29610;49.022;12.114;2023-05-29T16:39:37;24.30;41.10
18794;DHT22;29610;49.022;12.114;2023-05-29T16:42:27;24.30;39.80
18794;DHT22;29610;49.022;12.114;2023-05-29T16:45:15;24.30;39.80
18794;DHT22;29610;49.022;12.114;2023-05-29T16:48:04;24.30;40.40
18794;DHT22;29610;49.022;12.114;2023-05-29T16:50:53;24.40;39.30
18794;DHT22;29610;49.022;12.114;2023-05-29T16:53:41;24.20;38.80
18794;DHT22;29610;49.022;12.114;2023-05-29T16:56:30;24.10;39.70
18794;DHT22;29610;49.022;12.114;2023-05-29T16:59:20;24.00;40.10
18794;DHT22;29610;49.022;12.114;2023-05-29T17:02:09;24.00;40.40
18794;DHT22;29610;49.022;12.114;2023-05-29T17:04:57;24.00;39.90
18794;DHT22;29610;49.022;12.114;2023-05-29T17:07:46;23.90;39.70
18794;DHT22;29610;49.022;12.114;2023-05-29T17:10:34;23.90;40.30
18794;DHT22;29610;49.022;12.114;2023-05-29T17:13:23;23.80;41.10
18794;DHT22;29610;49.022;12.114;2023-05-29T17:16:13;23.70;40.00
18794;DHT22;29610;49.022;12.114;2023-05-29T17:19:01;23.60;40.20
18794;DHT22;29610;49.022;12.114;2023-05-29T17:21:50;23.60;40.60
18794;DHT22;29610;49.022;12.114;2023-05-29T17:24:38;23.50;40.80
18794;DHT22;29610;49.022;12.114;2023-05-29T17:27:27;23.60;41.60
18794;DHT22;29610;49.022;12.114;2023-05-29T17:30:15;23.70;41.20
18794;DHT22;29610;49.022;12.114;2023-05-29T17:33:05;23.70;41.00
18794;DHT22;29610;49.022;12.114;2023-05-29T17:35:54;23.60;41.20
18794;DHT22;29610;49.022;12.114;2023-05-29T17:38:43;23.40;41.60
18794;DHT22;29610;49.022;12.114;2023-05-29T17:41:34;23.20;42.70
18794;DHT22;29610;49.022;12.114;2023-05-29T17:44:23;23.10;41.90
18794;DHT22;29610;49.022;12.114;2023-05-29T17:47:12;23.00;42.40